Time;durP1;ratioP1;P1;durP2;ratioP2;P2;SDS_P1;SDS_P2;PMS_P1;PMS_P2;Temp;Humidity;BMP_temperature;BMP_pressure;BME280_temperature;BME280_humidity;BME280_pressure;Samples;Min_cycle;Max_cycle;Signal;HPM_P1;HPM_P2
2022/03/22 00:01:47;;;;;;;4.07;3.67;;;8.40;44.70;8.40;97760.00;;;;4932875;28;20209;-85
2022/03/22 00:04:15;;;;;;;4.97;4.07;;;8.30;44.80;8.30;97762.00;;;;4941629;29;20195;-84
2022/03/22 00:06:43;;;;;;;5.43;3.70;;;8.30;45.10;8.30;97762.00;;;;4956716;23;20244;-84
2022/03/22 00:09:10;;;;;;;3.83;3.10;;;8.30;45.00;8.30;97761.00;;;;4953085;28;20231;-84
2022/03/22 00:11:37;;;;;;;3.87;3.53;;;8.20;45.00;8.20;97765.00;;;;4953762;29;20220;-84
2022/03/22 00:14:06;;;;;;;4.03;3.43;;;8.80;45.40;8.20;97769.00;;;;4951463;29;20216;-84
2022/03/22 00:16:33;;;;;;;4.23;3.43;;;8.10;45.00;8.20;97768.00;;;;4949272;28;20254;-84
2022/03/22 00:19:00;;;;;;;5.40;3.53;;;8.10;45.00;8.10;97760.00;;;;4948427;28;20286;-84
2022/03/22 00:21:28;;;;;;;5.03;3.47;;;8.10;45.10;8.10;97759.00;;;;4953485;28;20210;-84
2022/03/22 00:23:56;;;;;;;4.67;4.10;;;8.10;45.10;8.10;97760.00;;;;5009324;28;20652;-83
2022/03/22 00:26:23;;;;;;;4.77;3.73;;;8.10;45.10;8.00;97754.00;;;;4952561;28;20279;-84
2022/03/22 00:28:50;;;;;;;4.77;3.90;;;8.00;45.10;8.00;97759.00;;;;4934945;29;20227;-83
2022/03/22 00:31:17;;;;;;;4.20;3.70;;;8.00;45.20;8.00;97760.00;;;;4953781;28;20228;-84
2022/03/22 00:33:44;;;;;;;4.40;3.73;;;8.10;45.20;7.90;97765.00;;;;4951574;28;20807;-84
2022/03/22 00:36:13;;;;;;;4.43;3.50;;;7.90;45.20;7.90;97765.00;;;;4949678;28;20228;-84
2022/03/22 00:38:41;;;;;;;4.50;3.57;;;7.90;45.40;7.90;97755.00;;;;4952097;28;20287;-83
2022/03/22 00:41:09;;;;;;;4.33;3.63;;;7.90;45.60;7.80;97756.00;;;;4952033;28;20289;-83
2022/03/22 00:43:36;;;;;;;4.53;3.70;;;7.80;45.50;7.80;97755.00;;;;4944609;28;20287;-83
2022/03/22 00:46:03;;;;;;;4.33;3.40;;;7.80;45.60;7.80;97752.00;;;;4951484;28;20622;-83
2022/03/22 00:48:31;;;;;;;4.20;3.57;;;7.80;45.80;7.80;97754.00;;;;4953144;28;20200;-83
2022/03/22 00:50:58;;;;;;;4.27;3.20;;;7.70;45.70;7.70;97754.00;;;;4975869;28;20678;-84
2022/03/22 00:53:25;;;;;;;3.73;3.30;;;7.70;45.70;7.70;97748.00;;;;4990953;28;20265;-83
2022/03/22 00:55:54;;;;;;;4.90;3.40;;;7.70;45.80;7.70;97766.00;;;;4951356;28;20230;-84
2022/03/22 00:58:21;;;;;;;4.53;3.37;;;7.60;45.90;7.60;97755.00;;;;4951515;28;20231;-84
2022/03/22 01:00:48;;;;;;;3.57;3.27;;;7.60;46.10;7.60;97758.00;;;;4949555;28;20299;-84
2022/03/22 01:03:16;;;;;;;3.90;3.27;;;7.60;46.20;7.50;97753.00;;;;4954344;28;20227;-85
2022/03/22 01:05:44;;;;;;;3.83;3.50;;;7.50;46.10;7.50;97749.00;;;;4953594;28;20222;-84
2022/03/22 01:08:14;;;;;;;3.70;3.40;;;7.50;46.10;7.50;97765.00;;;;4953673;28;20283;-83
2022/03/22 01:10:51;;;;;;;3.13;2.90;;;7.50;46.10;7.50;97761.00;;;;4953661;28;20697;-84
2022/03/22 01:13:22;;;;;;;3.50;3.20;;;7.40;46.10;7.40;97757.00;;;;4954102;28;20194;-84
2022/03/22 01:15:49;;;;;;;3.20;2.90;;;7.40;46.00;7.40;97759.00;;;;4953456;28;20580;-83
2022/03/22 01:18:16;;;;;;;4.07;3.67;;;7.40;45.80;7.40;97737.00;;;;4952329;28;20283;-83
2022/03/22 01:20:46;;;;;;;3.80;3.50;;;7.40;45.70;7.30;97737.00;;;;4951062;28;20307;-84
2022/03/22 01:23:15;;;;;;;3.80;3.50;;;7.40;45.60;7.30;97752.00;;;;4952313;28;20207;-84
2022/03/22 01:25:43;;;;;;;3.80;3.50;;;7.30;45.50;7.30;97743.00;;;;4952774;29;20227;-83
2022/03/22 01:28:14;;;;;;;4.60;3.60;;;7.30;45.40;7.20;97742.00;;;;4953504;28;20205;-84
2022/03/22 01:30:43;;;;;;;3.90;3.60;;;7.30;45.50;7.20;97741.00;;;;4952811;29;20227;-84
2022/03/22 01:33:12;;;;;;;5.03;3.33;;;7.30;45.60;7.20;97740.00;;;;4952273;29;20290;-84
2022/03/22 01:35:39;;;;;;;3.20;3.00;;;7.30;45.50;7.20;97737.00;;;;4953244;28;20621;-84
2022/03/22 01:38:07;;;;;;;4.20;3.37;;;7.20;45.40;7.10;97731.00;;;;4948372;28;20200;-85
2022/03/22 01:40:35;;;;;;;3.83;3.10;;;7.20;45.50;7.10;97720.00;;;;4952983;28;20215;-84
2022/03/22 01:43:04;;;;;;;3.83;3.07;;;7.20;45.60;7.10;97726.00;;;;4953708;28;20200;-85
2022/03/22 01:45:31;;;;;;;4.13;3.23;;;7.10;45.50;7.00;97721.00;;;;4953710;28;20239;-85
2022/03/22 01:48:02;;;;;;;4.37;3.40;;;7.10;45.50;7.00;97721.00;;;;4953362;28;20188;-84
2022/03/22 01:50:30;;;;;;;3.97;3.30;;;7.10;45.70;6.90;97724.00;;;;4952624;29;20314;-84
2022/03/22 01:52:59;;;;;;;4.07;3.60;;;6.90;45.60;6.90;97734.00;;;;4953298;28;20280;-84
2022/03/22 01:55:27;;;;;;;4.23;3.40;;;7.00;45.80;6.90;97715.00;;;;4953944;28;20216;-85
2022/03/22 01:57:55;;;;;;;3.93;3.43;;;6.90;45.90;6.80;97724.00;;;;4960679;28;20247;-84
2022/03/22 02:00:23;;;;;;;3.43;3.13;;;6.90;46.10;6.80;97721.00;;;;4956411;28;20204;-84
2022/03/22 02:05:56;;;;;;;3.80;3.50;;;6.80;46.30;6.70;97723.00;;;;4952958;29;20222;-85
2022/03/22 02:08:27;;;;;;;3.47;3.17;;;6.80;46.30;6.70;97731.00;;;;4952404;28;20536;-84
2022/03/22 02:10:55;;;;;;;3.17;2.87;;;6.70;46.30;6.70;97717.00;;;;4951486;29;20218;-84
2022/03/22 02:13:22;;;;;;;4.50;3.67;;;6.70;46.20;6.60;97717.00;;;;4953423;28;20200;-84
2022/03/22 02:15:54;;;;;;;3.97;3.00;;;6.70;46.40;6.60;97729.00;;;;4954635;28;20279;-85
2022/03/22 02:18:21;;;;;;;4.50;3.20;;;6.60;46.40;6.50;97718.00;;;;4954392;29;20196;-84
2022/03/22 02:20:50;;;;;;;3.80;3.43;;;6.50;46.30;6.50;97708.00;;;;4953154;28;20200;-85
2022/03/22 02:23:21;;;;;;;3.30;3.00;;;6.60;46.50;6.50;97713.00;;;;4944103;28;20266;-84
2022/03/22 02:25:50;;;;;;;4.87;3.60;;;6.50;46.50;6.40;97704.00;;;;4954515;28;20219;-84
2022/03/22 02:28:21;;;;;;;3.63;3.30;;;6.50;46.40;6.40;97714.00;;;;4952445;28;20228;-84
2022/03/22 02:30:50;;;;;;;5.10;3.37;;;6.40;46.40;6.30;97713.00;;;;4941883;29;20223;-85
2022/03/22 02:33:17;;;;;;;3.50;3.20;;;6.40;46.60;6.30;97701.00;;;;4950288;29;20204;-85
2022/03/22 02:35:46;;;;;;;4.07;3.27;;;6.40;46.60;6.20;97698.00;;;;4952234;28;20208;-85
2022/03/22 02:38:13;;;;;;;4.10;3.57;;;6.30;46.50;6.20;97706.00;;;;4951929;28;20200;-85
2022/03/22 02:40:41;;;;;;;4.10;3.70;;;6.30;46.60;6.20;97717.00;;;;4969020;28;20212;-85
2022/03/22 02:43:09;;;;;;;5.27;3.43;;;6.20;46.60;6.10;97712.00;;;;4962321;28;20204;-84
2022/03/22 02:45:37;;;;;;;4.97;3.37;;;6.20;46.60;6.10;97698.00;;;;4952696;28;20224;-84
2022/03/22 02:48:04;;;;;;;4.63;3.67;;;6.10;46.60;6.10;97704.00;;;;4952120;28;20231;-84
2022/03/22 02:50:32;;;;;;;6.13;3.53;;;6.10;46.70;6.00;97701.00;;;;4951797;28;20204;-84
2022/03/22 02:53:00;;;;;;;3.80;3.37;;;6.10;46.70;6.00;97715.00;;;;4951264;28;20227;-85
2022/03/22 02:55:27;;;;;;;3.83;3.33;;;6.00;46.80;6.00;97713.00;;;;4950834;28;20299;-84
2022/03/22 02:57:54;;;;;;;3.93;3.53;;;6.00;47.00;5.90;97711.00;;;;4951858;28;20304;-84
2022/03/22 03:00:24;;;;;;;3.80;3.27;;;5.90;47.20;5.90;97713.00;;;;4944689;28;20280;-83
2022/03/22 03:02:53;;;;;;;5.40;3.83;;;5.90;47.10;5.90;97713.00;;;;4950416;28;20200;-84
2022/03/22 03:05:22;;;;;;;3.53;3.23;;;5.90;47.20;5.90;97711.00;;;;4952872;28;20227;-84
2022/03/22 03:07:51;;;;;;;3.80;3.23;;;5.90;47.10;5.80;97711.00;;;;4951339;28;20204;-85
2022/03/22 03:10:18;;;;;;;4.13;3.40;;;5.90;47.10;5.80;97711.00;;;;4952194;28;20252;-84
2022/03/22 03:12:45;;;;;;;3.27;3.00;;;5.80;47.20;5.80;97710.00;;;;5010528;28;20662;-85
2022/03/22 03:15:13;;;;;;;4.87;3.60;;;5.80;47.30;5.80;97699.00;;;;4955010;28;20747;-85
2022/03/22 03:17:42;;;;;;;4.97;3.30;;;5.80;47.40;5.70;97699.00;;;;4954699;28;20208;-84
2022/03/22 03:20:10;;;;;;;3.67;3.37;;;5.80;47.50;5.70;97705.00;;;;4955869;28;20224;-84
2022/03/22 03:22:37;;;;;;;4.27;3.73;;;5.70;47.60;5.70;97703.00;;;;4950658;28;20200;-84
2022/03/22 03:25:08;;;;;;;3.40;3.07;;;6.20;47.90;5.60;97709.00;;;;4955766;28;20221;-84
2022/03/22 03:27:35;;;;;;;4.63;3.43;;;5.70;47.70;5.60;97710.00;;;;4955757;28;20271;-84
2022/03/22 03:30:05;;;;;;;3.43;3.13;;;5.70;47.90;5.60;97711.00;;;;4975478;28;20261;-83
2022/03/22 03:32:32;;;;;;;5.00;3.27;;;5.60;47.90;5.60;97703.00;;;;5036833;28;20217;-84
2022/03/22 03:35:01;;;;;;;4.00;3.53;;;5.60;48.10;5.50;97708.00;;;;4980473;28;20299;-84
2022/03/22 03:37:30;;;;;;;4.40;3.27;;;5.60;48.20;5.50;97707.00;;;;4956954;28;20219;-84
2022/03/22 03:39:57;;;;;;;3.83;3.50;;;5.60;48.30;5.50;97709.00;;;;4956493;28;20193;-84
2022/03/22 03:42:24;;;;;;;3.63;3.33;;;5.50;48.40;5.50;97714.00;;;;4955424;28;20236;-84
2022/03/22 03:47:36;;;;;;;4.17;3.33;;;5.50;48.40;5.40;97726.00;;;;4953919;29;20234;-84
2022/03/22 03:50:08;;;;;;;4.47;3.47;;;5.50;48.40;5.40;97722.00;;;;4955573;28;20638;-84
2022/03/22 03:52:38;;;;;;;5.60;3.73;;;5.50;48.50;5.40;97724.00;;;;4955637;28;20700;-84
2022/03/22 03:55:07;;;;;;;3.93;3.53;;;5.50;48.50;5.40;97720.00;;;;4952156;28;20311;-85
2022/03/22 03:57:36;;;;;;;3.90;3.20;;;5.50;48.50;5.40;97722.00;;;;4952691;28;20228;-85
2022/03/22 04:00:07;;;;;;;3.87;3.13;;;5.50;48.40;5.40;97718.00;;;;4950632;28;20280;-85
2022/03/22 04:02:34;;;;;;;4.37;3.57;;;5.50;48.40;5.40;97710.00;;;;4969819;28;20185;-85
2022/03/22 04:05:01;;;;;;;5.40;3.80;;;5.40;48.20;5.40;97723.00;;;;4951551;28;20299;-85
2022/03/22 04:07:29;;;;;;;3.87;3.10;;;5.40;48.20;5.40;97720.00;;;;4952574;28;20208;-85
2022/03/22 04:09:57;;;;;;;4.00;3.60;;;5.40;48.30;5.40;97706.00;;;;4951921;28;20279;-86
2022/03/22 04:12:24;;;;;;;3.63;3.33;;;5.40;48.30;5.40;97715.00;;;;4952478;28;20315;-85
2022/03/22 04:14:53;;;;;;;4.53;3.60;;;5.40;48.40;5.40;97710.00;;;;4950953;28;20299;-84
2022/03/22 04:17:22;;;;;;;4.63;3.70;;;5.40;48.40;5.40;97715.00;;;;4948652;28;20200;-85
2022/03/22 04:19:49;;;;;;;3.97;3.47;;;5.40;48.50;5.30;97722.00;;;;4952444;28;20236;-85
2022/03/22 04:22:18;;;;;;;4.30;3.80;;;5.40;49.10;5.30;97722.00;;;;4951747;29;20197;-85
2022/03/22 04:24:46;;;;;;;4.37;3.77;;;6.00;48.90;5.30;97722.00;;;;4949990;28;20236;-85
2022/03/22 04:32:43;;;;;;;4.37;3.33;;;5.30;48.60;5.20;97727.00;;;;4943451;29;20215;-85
2022/03/22 04:35:11;;;;;;;5.63;3.50;;;5.30;48.50;5.20;97725.00;;;;4950390;28;20291;-85
2022/03/22 04:37:39;;;;;;;6.50;3.87;;;5.30;48.50;5.20;97733.00;;;;4952745;28;20566;-85
2022/03/22 04:40:10;;;;;;;6.63;4.03;;;5.30;48.60;5.20;97741.00;;;;4951819;28;20290;-85
2022/03/22 04:42:37;;;;;;;4.20;3.80;;;5.30;48.70;5.20;97746.00;;;;4952239;29;20287;-85
2022/03/22 04:45:06;;;;;;;4.63;3.43;;;5.20;48.70;5.10;97737.00;;;;4950849;28;20243;-85
2022/03/22 04:47:35;;;;;;;4.77;3.43;;;5.20;48.80;5.10;97738.00;;;;4948639;28;21030;-85
2022/03/22 04:50:02;;;;;;;4.27;3.50;;;5.20;48.80;5.10;97736.00;;;;4951719;28;20505;-85
2022/03/22 04:58:02;;;;;;;4.33;3.80;;;5.10;49.00;5.00;97735.00;;;;4950303;28;20570;-85
2022/03/22 05:00:29;;;;;;;5.63;3.53;;;5.10;48.90;5.00;97727.00;;;;4948764;28;20206;-85
2022/03/22 05:02:56;;;;;;;4.10;3.60;;;5.10;48.90;5.00;97733.00;;;;4951321;28;20576;-85
2022/03/22 05:08:05;;;;;;;3.80;3.27;;;5.10;49.60;4.90;97737.00;;;;4950371;28;20220;-85
2022/03/22 05:10:35;;;;;;;4.00;3.60;;;5.00;49.10;4.90;97736.00;;;;4951920;28;20208;-86
2022/03/22 05:13:03;;;;;;;5.10;3.43;;;5.00;49.20;4.90;97734.00;;;;4951879;28;20311;-85
2022/03/22 05:15:32;;;;;;;4.40;3.40;;;5.00;49.30;4.90;97741.00;;;;4952303;28;20220;-85
2022/03/22 05:18:01;;;;;;;3.93;3.30;;;5.00;49.40;4.90;97744.00;;;;4941233;28;20842;-84
2022/03/22 05:20:29;;;;;;;4.40;3.83;;;4.90;50.00;4.80;97746.00;;;;4948925;28;20758;-84
2022/03/22 05:22:56;;;;;;;4.63;3.80;;;4.90;49.40;4.80;97746.00;;;;4950414;28;20231;-85
2022/03/22 05:25:24;;;;;;;5.23;3.97;;;4.90;49.40;4.80;97744.00;;;;4951747;28;20220;-86
2022/03/22 05:27:52;;;;;;;4.77;4.17;;;4.90;49.40;4.80;97747.00;;;;4954046;28;20507;-86
2022/03/22 05:30:19;;;;;;;5.63;3.77;;;4.90;49.40;4.90;97746.00;;;;4948291;28;20192;-85
2022/03/22 05:32:46;;;;;;;4.20;3.80;;;4.90;49.50;4.90;97743.00;;;;4952964;28;20227;-85
2022/03/22 05:35:14;;;;;;;5.10;4.33;;;4.80;49.50;4.90;97746.00;;;;4951201;28;20302;-85
2022/03/22 05:37:41;;;;;;;4.77;4.03;;;4.90;49.60;4.90;97744.00;;;;4949105;28;20304;-84
2022/03/22 05:40:09;;;;;;;5.97;3.77;;;4.90;49.60;4.90;97743.00;;;;4946385;28;20208;-84
2022/03/22 05:42:38;;;;;;;4.93;4.07;;;4.90;49.60;5.00;97747.00;;;;4950980;28;20254;-85
2022/03/22 05:45:10;;;;;;;6.07;4.00;;;4.90;49.70;5.00;97750.00;;;;4951580;28;20456;-85
2022/03/22 05:47:37;;;;;;;5.23;4.03;;;4.90;49.70;5.00;97743.00;;;;4954219;28;20191;-86
2022/03/22 05:50:06;;;;;;;4.23;3.40;;;4.90;49.60;5.00;97751.00;;;;4954302;28;20200;-85
2022/03/22 05:52:33;;;;;;;3.97;3.53;;;4.90;49.60;5.00;97758.00;;;;4962904;23;20225;-85
2022/03/22 05:55:00;;;;;;;4.93;3.63;;;4.90;49.60;5.00;97761.00;;;;4921675;29;20247;-85
2022/03/22 05:57:27;;;;;;;5.13;4.00;;;4.90;49.50;5.10;97752.00;;;;4946172;28;20581;-84
2022/03/22 05:59:54;;;;;;;4.33;3.53;;;4.90;49.50;5.10;97765.00;;;;4920297;29;20204;-85
2022/03/22 06:02:23;;;;;;;4.57;3.80;;;4.90;49.50;5.10;97759.00;;;;4919555;29;20204;-85
2022/03/22 06:04:50;;;;;;;6.53;4.00;;;5.00;49.50;5.10;97762.00;;;;4918557;28;20462;-84
2022/03/22 06:07:20;;;;;;;4.03;3.70;;;5.00;49.40;5.20;97760.00;;;;4916987;29;20228;-85
2022/03/22 06:09:48;;;;;;;5.57;3.83;;;5.00;49.40;5.20;97754.00;;;;4918378;28;20194;-85
2022/03/22 06:12:16;;;;;;;5.40;3.90;;;5.10;49.30;5.20;97751.00;;;;4917948;29;20225;-86
2022/03/22 06:14:43;;;;;;;5.07;3.53;;;5.10;49.30;5.30;97769.00;;;;4917141;29;20232;-85
2022/03/22 06:17:10;;;;;;;4.40;3.87;;;5.10;49.30;5.30;97769.00;;;;4916175;28;20193;-85
2022/03/22 06:19:38;;;;;;;5.67;3.97;;;5.10;49.30;5.30;97769.00;;;;4917889;29;20197;-86
2022/03/22 06:22:06;;;;;;;5.17;4.13;;;5.30;49.30;5.40;97766.00;;;;4918161;28;20236;-85
2022/03/22 06:24:33;;;;;;;3.73;3.37;;;5.20;49.20;5.40;97766.00;;;;4917164;29;20263;-87
2022/03/22 06:27:00;;;;;;;5.50;3.80;;;5.30;49.20;5.50;97759.00;;;;4906504;28;20213;-85
2022/03/22 06:29:27;;;;;;;4.37;3.70;;;5.30;49.20;5.50;97769.00;;;;4902905;28;20210;-86
2022/03/22 06:31:54;;;;;;;4.07;3.67;;;5.30;49.00;5.60;97773.00;;;;4917376;28;20586;-85
2022/03/22 06:34:21;;;;;;;4.13;3.73;;;5.40;49.10;5.60;97773.00;;;;4917610;28;20304;-86
2022/03/22 06:36:49;;;;;;;5.20;4.10;;;5.40;49.00;5.60;97774.00;;;;4917645;28;20201;-86
2022/03/22 06:39:16;;;;;;;5.53;4.40;;;5.50;49.00;5.70;97768.00;;;;4917101;28;20573;-85
2022/03/22 06:41:43;;;;;;;4.63;3.60;;;5.50;48.90;5.70;97769.00;;;;4916217;28;20202;-85
2022/03/22 06:44:10;;;;;;;3.70;3.40;;;5.60;48.90;5.80;97768.00;;;;4917846;28;20251;-86
2022/03/22 06:46:37;;;;;;;3.73;3.40;;;5.60;48.90;5.80;97774.00;;;;4907794;28;20208;-87
2022/03/22 06:49:05;;;;;;;6.27;4.00;;;5.70;48.90;5.90;97770.00;;;;4911429;29;20197;-85
2022/03/22 06:51:32;;;;;;;4.53;3.73;;;5.70;48.90;6.00;97781.00;;;;4919245;28;20197;-85
2022/03/22 06:54:03;;;;;;;4.33;3.93;;;5.80;48.80;6.00;97784.00;;;;4943034;23;20237;-82
2022/03/22 06:56:31;;;;;;;7.10;3.93;;;5.80;48.60;6.10;97786.00;;;;4959927;28;20239;-82
2022/03/22 06:58:58;;;;;;;4.83;3.90;;;5.90;48.60;6.10;97784.00;;;;4957621;28;20235;-83
2022/03/22 07:01:25;;;;;;;4.80;4.13;;;5.90;48.60;6.20;97790.00;;;;4955977;28;20700;-83
2022/03/22 07:03:53;;;;;;;5.50;4.00;;;6.00;48.60;6.30;97792.00;;;;4955129;28;20586;-84
2022/03/22 07:06:20;;;;;;;5.67;3.60;;;6.10;48.50;6.40;97784.00;;;;4954225;28;20196;-83
2022/03/22 07:08:47;;;;;;;4.47;4.03;;;6.20;48.50;6.50;97798.00;;;;4954605;28;20283;-84
2022/03/22 07:14:01;;;;;;;3.43;2.83;;;6.40;48.60;6.70;97798.00;;;;4954116;29;20727;-83
2022/03/22 07:16:28;;;;;;;3.60;3.30;;;6.40;48.60;6.80;97802.00;;;;4954136;28;20204;-83
2022/03/22 07:18:55;;;;;;;4.07;3.50;;;6.50;48.60;6.80;97812.00;;;;4953880;28;20236;-83
2022/03/22 07:21:23;;;;;;;4.50;3.60;;;6.60;48.30;6.90;97811.00;;;;4953659;28;20287;-83
2022/03/22 07:23:50;;;;;;;4.10;3.67;;;6.70;48.10;7.00;97814.00;;;;4953688;28;20231;-83
2022/03/22 07:26:18;;;;;;;4.03;3.60;;;6.80;48.00;7.10;97815.00;;;;4934210;28;20292;-82
2022/03/22 07:28:46;;;;;;;4.73;3.50;;;6.90;48.00;7.20;97822.00;;;;4954565;28;20747;-86
2022/03/22 07:31:13;;;;;;;4.60;4.20;;;7.00;47.90;7.30;97824.00;;;;4953372;28;20219;-82
2022/03/22 07:33:40;;;;;;;4.37;3.93;;;7.10;47.80;7.40;97824.00;;;;4954967;28;20320;-82
2022/03/22 07:36:07;;;;;;;3.40;3.10;;;7.20;47.70;7.50;97828.00;;;;4955642;28;20200;-83
2022/03/22 07:38:34;;;;;;;3.73;3.40;;;7.30;47.60;7.70;97820.00;;;;4953354;28;20657;-83
2022/03/22 07:41:02;;;;;;;4.47;3.57;;;7.40;47.60;7.80;97831.00;;;;4953328;28;20250;-84
2022/03/22 07:43:30;;;;;;;4.20;3.63;;;7.50;47.50;8.00;97834.00;;;;4952858;28;20243;-82
2022/03/22 07:45:59;;;;;;;4.73;3.30;;;7.70;47.70;8.20;97836.00;;;;4952907;28;20287;-84
2022/03/22 07:48:26;;;;;;;4.10;3.70;;;7.80;47.30;8.50;97837.00;;;;4952605;28;20299;-84
2022/03/22 07:53:38;;;;;;;4.30;3.63;;;8.20;47.60;9.00;97841.00;;;;4951984;28;20254;-84
2022/03/22 07:56:05;;;;;;;4.63;3.43;;;8.40;47.60;9.20;97839.00;;;;4951786;28;20203;-85
2022/03/22 07:58:33;;;;;;;4.73;3.67;;;8.70;47.70;9.50;97846.00;;;;4951989;28;20204;-85
2022/03/22 08:01:00;;;;;;;3.47;3.17;;;8.80;47.50;9.70;97846.00;;;;4951962;28;20250;-86
2022/03/22 08:03:28;;;;;;;5.13;3.30;;;9.10;47.50;10.00;97847.00;;;;4951504;28;20635;-85
2022/03/22 08:05:55;;;;;;;4.37;3.80;;;9.30;47.30;10.20;97852.00;;;;4951911;28;20227;-86
2022/03/22 08:08:25;;;;;;;4.73;3.40;;;9.60;47.20;10.50;97860.00;;;;4951640;28;20270;-86
2022/03/22 08:10:52;;;;;;;3.87;3.20;;;9.80;47.00;10.70;97862.00;;;;4933651;28;20275;-86
2022/03/22 08:13:19;;;;;;;5.17;3.33;;;10.00;46.90;11.00;97858.00;;;;4947723;28;20675;-86
2022/03/22 08:15:48;;;;;;;4.67;3.90;;;10.30;46.70;11.20;97864.00;;;;4952174;28;20299;-86
2022/03/22 08:18:16;;;;;;;5.57;3.73;;;10.50;45.90;11.50;97875.00;;;;4952219;28;20204;-85
2022/03/22 08:20:44;;;;;;;5.43;3.60;;;10.70;46.00;11.70;97867.00;;;;4951861;28;20677;-85
2022/03/22 08:23:14;;;;;;;6.93;3.83;;;10.90;45.90;12.00;97861.00;;;;4953398;28;20204;-84
2022/03/22 08:25:44;;;;;;;5.00;3.77;;;11.10;45.40;12.20;97861.00;;;;4946923;28;20228;-85
2022/03/22 08:28:12;;;;;;;6.87;3.70;;;11.40;45.60;12.50;97867.00;;;;4952253;28;20274;-85
2022/03/22 08:30:42;;;;;;;4.40;3.83;;;11.50;44.70;12.70;97869.00;;;;4952096;28;20218;-84
2022/03/22 08:33:12;;;;;;;3.90;3.53;;;11.80;44.40;13.00;97861.00;;;;4952092;28;20220;-85
2022/03/22 08:35:43;;;;;;;4.03;3.63;;;12.00;44.00;13.30;97867.00;;;;4984864;28;20305;-85
2022/03/22 08:38:11;;;;;;;4.90;3.93;;;12.20;43.70;13.60;97856.00;;;;4946518;28;20833;-85
2022/03/22 08:40:38;;;;;;;3.43;3.13;;;12.40;44.10;14.00;97862.00;;;;4955041;28;20204;-85
2022/03/22 08:43:07;;;;;;;5.00;3.37;;;12.70;44.10;14.40;97867.00;;;;4953429;28;20675;-85
2022/03/22 08:45:35;;;;;;;3.80;3.20;;;12.90;43.50;14.80;97865.00;;;;4941330;28;20225;-85
2022/03/22 08:48:09;;;;;;;3.77;3.20;;;13.20;43.90;15.20;97874.00;;;;4950429;28;20460;-84
2022/03/22 08:50:40;;;;;;;3.70;3.40;;;13.50;43.90;15.60;97865.00;;;;4940452;29;20250;-84
2022/03/22 08:53:07;;;;;;;5.50;3.77;;;13.80;43.70;16.10;97870.00;;;;4950183;28;20327;-86
2022/03/22 08:55:36;;;;;;;4.23;3.83;;;14.20;43.30;16.40;97874.00;;;;4958005;28;20226;-85
2022/03/22 08:58:06;;;;;;;4.57;3.87;;;14.60;42.30;16.70;97872.00;;;;4950547;28;20648;-85
2022/03/22 09:00:35;;;;;;;3.70;3.40;;;15.00;41.10;17.00;97875.00;;;;4950633;28;20200;-84
2022/03/22 09:03:04;;;;;;;4.37;3.13;;;15.40;41.90;17.30;97874.00;;;;4952965;28;20231;-85
2022/03/22 09:08:18;;;;;;;7.63;3.73;;;16.40;40.60;17.90;97873.00;;;;4952180;29;20206;-87
2022/03/22 09:10:46;;;;;;;3.60;3.30;;;17.00;40.00;18.30;97879.00;;;;4951373;28;20231;-85
2022/03/22 09:13:15;;;;;;;4.10;3.70;;;17.60;39.10;18.60;97872.00;;;;4954892;28;20224;-85
2022/03/22 09:15:43;;;;;;;3.63;3.03;;;18.10;38.30;18.90;97873.00;;;;4961621;28;20702;-85
2022/03/22 09:18:14;;;;;;;4.70;3.30;;;18.60;38.60;19.20;97880.00;;;;4980589;28;20197;-85
2022/03/22 09:20:42;;;;;;;3.50;3.20;;;19.10;38.30;19.50;97872.00;;;;4975013;28;20196;-85
2022/03/22 09:23:10;;;;;;;3.67;3.37;;;19.70;36.40;19.80;97862.00;;;;4953088;28;20296;-83
2022/03/22 09:25:39;;;;;;;3.10;2.90;;;20.10;36.40;20.00;97876.00;;;;4953780;28;20280;-85
2022/03/22 09:28:07;;;;;;;4.33;3.20;;;20.60;36.00;20.20;97878.00;;;;4956190;28;20196;-85
2022/03/22 09:30:36;;;;;;;3.50;3.20;;;20.90;35.00;20.40;97876.00;;;;4948066;28;20253;-85
2022/03/22 09:33:04;;;;;;;3.27;3.03;;;21.20;34.60;20.60;97880.00;;;;4950671;28;20231;-84
2022/03/22 09:35:32;;;;;;;3.73;3.13;;;21.50;33.70;20.80;97881.00;;;;4950814;28;20220;-84
2022/03/22 09:38:00;;;;;;;3.80;3.50;;;21.70;32.60;20.90;97875.00;;;;4951837;28;20208;-86
2022/03/22 09:40:28;;;;;;;3.70;3.30;;;21.80;31.70;21.10;97877.00;;;;4946477;28;20204;-85
2022/03/22 09:42:56;;;;;;;4.10;3.20;;;21.90;31.90;21.20;97877.00;;;;4972217;28;20199;-84
2022/03/22 09:45:28;;;;;;;3.67;3.37;;;22.00;31.50;21.30;97880.00;;;;4960588;28;20612;-85
2022/03/22 09:47:56;;;;;;;3.53;3.10;;;22.00;30.30;21.30;97883.00;;;;4949965;29;20641;-85
2022/03/22 09:51:44;;;;;;;3.50;3.20;;;22.00;30.60;21.30;97881.00;;;;4950792;29;20204;-86
2022/03/22 09:53:16;;;;;;;3.57;3.27;;;21.90;29.90;21.30;97871.00;;;;4948266;28;20227;-84
2022/03/22 09:55:45;;;;;;;3.70;3.40;;;21.80;30.80;21.30;97875.00;;;;4949823;28;20243;-85
2022/03/22 09:58:14;;;;;;;3.50;3.20;;;21.70;31.20;21.40;97879.00;;;;4951333;28;20203;-85
2022/03/22 10:00:41;;;;;;;3.87;3.57;;;21.70;30.90;21.40;97881.00;;;;4952675;28;20203;-85
2022/03/22 10:03:09;;;;;;;3.47;3.17;;;21.60;30.80;21.40;97878.00;;;;4945811;28;20556;-84
2022/03/22 10:05:36;;;;;;;3.13;2.90;;;21.60;31.20;21.40;97878.00;;;;4951330;28;20224;-84
2022/03/22 10:08:08;;;;;;;3.17;2.97;;;21.50;31.60;21.40;97878.00;;;;4949597;28;20216;-85
2022/03/22 10:10:52;;;;;;;3.53;3.23;;;21.50;32.10;21.40;97870.00;;;;4948523;28;20196;-85
2022/03/22 10:13:23;;;;;;;3.67;3.37;;;21.50;31.50;21.40;97868.00;;;;4950448;28;20314;-86
2022/03/22 10:15:51;;;;;;;3.53;3.27;;;21.60;31.70;21.40;97865.00;;;;4948893;29;20198;-85
2022/03/22 10:18:25;;;;;;;3.37;3.13;;;21.60;32.20;21.40;97865.00;;;;4952010;28;20238;-87
2022/03/22 10:21:01;;;;;;;4.17;3.17;;;21.70;31.40;21.30;97860.00;;;;4947783;28;20203;-85
2022/03/22 10:23:31;;;;;;;3.37;3.07;;;21.80;30.90;21.30;97868.00;;;;4949262;29;20278;-84
2022/03/22 10:26:08;;;;;;;3.27;3.00;;;22.00;31.20;21.30;97862.00;;;;4944015;28;20291;-85
2022/03/22 10:28:37;;;;;;;3.67;3.37;;;22.10;30.10;21.30;97855.00;;;;4943993;28;20214;-84
2022/03/22 10:31:05;;;;;;;3.77;3.40;;;22.20;30.70;21.40;97855.00;;;;4948937;28;20676;-85
2022/03/22 10:33:32;;;;;;;3.57;3.27;;;22.30;30.60;21.50;97857.00;;;;4943404;28;20228;-84
2022/03/22 10:36:00;;;;;;;4.50;2.80;;;22.50;30.60;21.60;97861.00;;;;4942350;28;20207;-84
2022/03/22 10:38:27;;;;;;;3.37;3.07;;;22.60;31.20;21.70;97854.00;;;;4944887;28;20200;-86
2022/03/22 10:40:54;;;;;;;3.53;3.23;;;22.80;31.30;21.80;97857.00;;;;4949421;28;20610;-84
2022/03/22 10:43:26;;;;;;;4.53;3.13;;;22.90;30.90;21.90;97857.00;;;;4941150;28;20258;-84
2022/03/22 10:46:00;;;;;;;2.67;2.50;;;23.00;30.40;22.00;97852.00;;;;4937027;28;20283;-85
2022/03/22 10:48:32;;;;;;;3.03;2.83;;;23.20;30.20;22.10;97853.00;;;;4943539;28;20669;-83
2022/03/22 10:51:05;;;;;;;3.30;3.00;;;23.40;30.10;22.10;97852.00;;;;4982096;28;20200;-84
2022/03/22 10:53:35;;;;;;;3.57;3.27;;;23.50;30.00;22.20;97850.00;;;;4943335;29;20265;-85
2022/03/22 10:56:05;;;;;;;3.30;3.00;;;23.60;30.00;22.20;97858.00;;;;4945181;28;20313;-84
2022/03/22 10:58:34;;;;;;;3.17;2.97;;;23.60;29.60;22.20;97846.00;;;;4965187;28;20234;-83
2022/03/22 11:01:05;;;;;;;3.70;3.40;;;23.50;29.90;22.10;97851.00;;;;4970632;28;20283;-84
2022/03/22 11:03:33;;;;;;;3.97;3.60;;;23.30;29.20;22.00;97843.00;;;;4948348;29;20243;-85
2022/03/22 11:06:04;;;;;;;4.97;4.13;;;23.10;28.20;21.90;97839.00;;;;4948154;28;20203;-85
2022/03/22 11:08:34;;;;;;;4.00;3.70;;;22.80;28.70;21.70;97839.00;;;;4944823;28;20344;-85
2022/03/22 11:11:02;;;;;;;4.33;4.00;;;22.50;28.60;21.50;97828.00;;;;4939868;28;20200;-85
2022/03/22 11:13:30;;;;;;;4.23;3.70;;;22.20;28.80;21.40;97834.00;;;;4954487;28;20236;-85
2022/03/22 11:15:59;;;;;;;4.07;3.67;;;21.90;28.00;21.10;97837.00;;;;4947290;28;20202;-86
2022/03/22 11:18:30;;;;;;;4.20;3.87;;;21.60;28.30;20.90;97833.00;;;;4947720;29;20209;-86
2022/03/22 11:21:01;;;;;;;4.63;4.23;;;21.30;29.10;20.70;97828.00;;;;4948117;28;20204;-84
2022/03/22 11:23:31;;;;;;;4.00;3.70;;;20.90;28.30;20.50;97825.00;;;;4983363;28;20240;-84
2022/03/22 11:26:08;;;;;;;4.87;4.20;;;20.60;29.20;20.30;97825.00;;;;4949235;28;20200;-84
2022/03/22 11:28:36;;;;;;;3.73;3.43;;;20.40;29.60;20.10;97826.00;;;;4950044;28;20283;-86
2022/03/22 11:31:05;;;;;;;4.43;3.80;;;20.20;30.00;20.00;97818.00;;;;4950752;28;20287;-85
2022/03/22 11:36:21;;;;;;;3.97;3.57;;;19.80;30.70;19.80;97809.00;;;;4985024;28;20331;-85
2022/03/22 11:38:51;;;;;;;4.00;3.57;;;19.60;30.90;19.70;97813.00;;;;4949008;28;20207;-85
2022/03/22 11:44:14;;;;;;;4.93;4.00;;;19.40;31.30;19.50;97805.00;;;;4952719;29;20227;-86